Omak, WA (98841)

1:11 AM PDT on July 31, 2016 (GMT -0700)
Omak (North) | | Change Station

Elev 951 ft 48.42 °N, 119.53 °W | Updated 9 seconds ago

Clear
Clear
71.4 °F
Feels Like 75 °F
N
3.8
Wind Variable Wind from North
Gusts 8.3 mph

Today
High -- | Low -- °F
--% Chance of Precip.
Yesterday
High -- | Low -- °F
Precip. -- in
Pressure 29.73 in
Visibility 10.0 miles
Clouds Clear
Heat Index 75 °F
Dew Point 32 °F
Humidity 23%
Rainfall 0.00 in
Snow Depth Not available.
5:32 AM 8:35 PM
Waning Crescent, 8% visible
METAR KOMK 310753Z AUTO 01013G21KT 10SM CLR 21/M02 A2976 RMK AO2 SLP066 T02111017 403670183
Pressure 29.73 in
Visibility 10.0 miles
Clouds Clear
Heat Index 75 °F
Dew Point 32 °F
Humidity 23%
Rainfall 0.00 in
Snow Depth Not available.
5:32 AM 8:35 PM
Waning Crescent, 8% visible
METAR KOMK 310753Z AUTO 01013G21KT 10SM CLR 21/M02 A2976 RMK AO2 SLP066 T02111017 403670183

10-Day Weather Forecast

Almanac

Astronomy

Jul. 31, 2016 Rise Set
Actual Time
Civil Twilight
Nautical Twilight
Astronomical Twilight
Moon
Length of Visible Light
Length of Day
Tomorrow will be .
, % of the Moon is Illuminated

Today's Extremes

State Highs State Lows

Community

WunderPhotos

Upload Photos

1,928,768 photos uploaded!

WunderBlog® & News

Nearby

Air Quality

  Air Quality AQ Index Pollutant
Not available.

Snow Depth

Station Depth Elevation

Earthquake Activity

City Distance Mag. Time & Date
Minimum magnitude displayed is 2.5.

Coastal Water Temperatures

Place Temperature

Stations

Nearby Weather Stations

Station Location Temp. Windchill Dew Point Humidity Wind Precip. Elev Updated Type
                   

Watches & Warnings

There are currently no watches in effect.